createdAt,value
2017-09-20T00:01:09.719Z,0
2017-09-20T00:02:19.972Z,0
2017-09-20T00:03:30.588Z,0
2017-09-20T00:04:40.852Z,0
2017-09-20T00:05:50.790Z,0
2017-09-20T00:07:00.719Z,0
2017-09-20T00:08:10.661Z,0
2017-09-20T00:09:21.161Z,0
2017-09-20T00:10:31.421Z,0
2017-09-20T00:11:41.346Z,0
2017-09-20T00:12:51.593Z,0
2017-09-20T00:14:01.846Z,0
2017-09-20T00:15:12.455Z,0
2017-09-20T00:16:22.701Z,0
2017-09-20T00:17:32.313Z,0
2017-09-20T00:18:42.560Z,0
2017-09-20T00:19:52.807Z,0
2017-09-20T00:21:02.681Z,0
2017-09-20T00:22:12.625Z,0
2017-09-20T00:23:22.556Z,0
2017-09-20T00:24:32.807Z,0
2017-09-20T00:25:43.051Z,0
2017-09-20T00:26:53.233Z,0
2017-09-20T00:28:03.488Z,0
2017-09-20T00:29:13.115Z,0
2017-09-20T00:30:23.372Z,0
2017-09-20T00:31:33.338Z,0
2017-09-20T00:32:43.626Z,0
2017-09-20T00:33:53.869Z,0
2017-09-20T00:35:04.109Z,0
2017-09-20T00:36:14.041Z,0
2017-09-20T00:37:23.980Z,0
2017-09-20T00:38:34.166Z,0
2017-09-20T00:39:44.419Z,0
2017-09-20T00:40:54.661Z,0
2017-09-20T00:42:04.594Z,0
2017-09-20T00:43:14.523Z,0
2017-09-20T00:44:25.158Z,0
2017-09-20T00:45:35.103Z,0
2017-09-20T00:46:45.351Z,0
2017-09-20T00:47:55.288Z,0
2017-09-20T00:49:05.541Z,0
2017-09-20T00:50:16.138Z,0
2017-09-20T00:51:25.750Z,0
2017-09-20T00:52:35.687Z,0
2017-09-20T00:53:45.945Z,0
2017-09-20T00:54:56.195Z,0
2017-09-20T00:56:06.803Z,0
2017-09-20T00:57:16.759Z,0
2017-09-20T00:58:26.739Z,0
2017-09-20T00:59:36.990Z,0
2017-09-20T01:00:46.923Z,0
2017-09-20T01:01:57.219Z,0
2017-09-20T01:03:07.160Z,0
2017-09-20T01:04:16.777Z,0
2017-09-20T01:05:26.981Z,0
2017-09-20T01:06:36.919Z,0
2017-09-20T01:07:47.108Z,0
2017-09-20T01:08:57.350Z,0
2017-09-20T01:10:07.287Z,0
2017-09-20T01:11:17.544Z,0
2017-09-20T01:12:27.793Z,0
2017-09-20T01:13:38.024Z,0
2017-09-20T01:14:48.288Z,0
2017-09-20T01:15:58.538Z,0
2017-09-20T01:17:08.461Z,0
2017-09-20T01:18:18.771Z,0
2017-09-20T01:19:28.961Z,0
2017-09-20T01:20:39.207Z,0
2017-09-20T01:21:49.145Z,0
2017-09-20T01:22:59.089Z,0
2017-09-20T01:24:09.338Z,0
2017-09-20T01:25:19.626Z,0
2017-09-20T01:26:29.569Z,0
2017-09-20T01:27:39.811Z,0
2017-09-20T01:28:50.062Z,0
2017-09-20T01:30:00.003Z,0
2017-09-20T01:31:10.303Z,0
2017-09-20T01:32:19.918Z,0
2017-09-20T01:33:30.164Z,0
2017-09-20T01:34:40.104Z,0
2017-09-20T01:35:50.354Z,0
2017-09-20T01:37:00.632Z,0
2017-09-20T01:38:10.879Z,0
2017-09-20T01:39:21.163Z,0
2017-09-20T01:40:31.398Z,0
2017-09-20T01:41:41.032Z,0
2017-09-20T01:42:51.525Z,0
2017-09-20T01:44:01.459Z,0
2017-09-20T01:45:11.702Z,0
2017-09-20T01:46:21.318Z,0
2017-09-20T01:47:30.930Z,0
2017-09-20T01:48:41.214Z,0
2017-09-20T01:49:51.149Z,0
2017-09-20T01:51:01.394Z,0
2017-09-20T01:52:11.642Z,0
2017-09-20T01:53:21.594Z,0
2017-09-20T01:54:31.776Z,0
2017-09-20T01:55:42.028Z,0
2017-09-20T01:56:52.264Z,0
2017-09-20T01:58:02.194Z,0
2017-09-20T01:59:12.121Z,0
2017-09-20T02:00:22.723Z,0
2017-09-20T02:01:32.983Z,0
2017-09-20T02:02:43.247Z,0
2017-09-20T02:03:53.182Z,0
2017-09-20T02:05:03.118Z,0
2017-09-20T02:06:13.714Z,0
2017-09-20T02:07:23.970Z,0
2017-09-20T02:08:33.919Z,0
2017-09-20T02:09:43.848Z,0
2017-09-20T02:10:53.850Z,0
2017-09-20T02:12:04.473Z,0
2017-09-20T02:13:14.414Z,0
2017-09-20T02:14:24.671Z,0
2017-09-20T02:15:34.916Z,0
2017-09-20T02:16:44.851Z,0
2017-09-20T02:17:54.816Z,0
2017-09-20T02:19:05.056Z,0
2017-09-20T02:20:15.311Z,0
2017-09-20T02:21:25.247Z,0
2017-09-20T02:22:35.488Z,0
2017-09-20T02:23:45.674Z,0
2017-09-20T02:24:55.296Z,0
2017-09-20T02:26:05.223Z,0
2017-09-20T02:27:15.475Z,0
2017-09-20T02:28:25.729Z,0
2017-09-20T02:29:36.256Z,0
2017-09-20T02:30:46.509Z,0
2017-09-20T02:31:56.763Z,0
2017-09-20T02:33:07.018Z,0
2017-09-20T02:34:17.273Z,0
2017-09-20T02:35:27.765Z,0
2017-09-20T02:36:38.019Z,0
2017-09-20T02:37:47.632Z,0
2017-09-20T02:38:57.892Z,0
2017-09-20T02:40:07.819Z,0
2017-09-20T02:41:18.313Z,0
2017-09-20T02:42:28.567Z,0
2017-09-20T02:43:38.827Z,0
2017-09-20T02:44:49.090Z,0
2017-09-20T02:45:59.321Z,0
2017-09-20T02:47:09.838Z,0
2017-09-20T02:48:19.771Z,0
2017-09-20T02:49:29.384Z,0
2017-09-20T02:50:39.633Z,0
2017-09-20T02:51:49.880Z,0
2017-09-20T02:53:00.185Z,0
2017-09-20T02:54:10.440Z,0
2017-09-20T02:55:20.693Z,0
2017-09-20T02:56:30.939Z,0
2017-09-20T02:57:40.873Z,0
2017-09-20T02:58:51.171Z,0
2017-09-20T03:00:01.409Z,0
2017-09-20T03:01:11.669Z,0
2017-09-20T03:02:21.595Z,0
2017-09-20T03:03:31.527Z,0
2017-09-20T03:04:42.129Z,0
2017-09-20T03:05:52.373Z,0
2017-09-20T03:07:02.618Z,0
2017-09-20T03:08:12.864Z,0
2017-09-20T03:09:22.795Z,0
2017-09-20T03:10:33.032Z,0
2017-09-20T03:11:42.961Z,0
2017-09-20T03:12:52.890Z,0
2017-09-20T03:14:02.826Z,0
2017-09-20T03:15:12.754Z,0
2017-09-20T03:16:23.248Z,0
2017-09-20T03:17:33.194Z,0
2017-09-20T03:18:43.437Z,0
2017-09-20T03:19:53.397Z,0
2017-09-20T03:21:03.646Z,0
2017-09-20T03:22:14.193Z,0
2017-09-20T03:23:24.121Z,0
2017-09-20T03:24:34.046Z,0
2017-09-20T03:25:43.970Z,0
2017-09-20T03:26:53.902Z,0
2017-09-20T03:28:04.501Z,0
2017-09-20T03:29:14.741Z,0
2017-09-20T03:30:25.010Z,0
2017-09-20T03:31:35.259Z,0
2017-09-20T03:32:45.187Z,0
2017-09-20T03:33:55.792Z,0
2017-09-20T03:35:06.040Z,0
2017-09-20T03:36:16.292Z,0
2017-09-20T03:37:26.537Z,0
2017-09-20T03:38:36.793Z,0
2017-09-20T03:39:47.390Z,0
2017-09-20T03:40:57.679Z,0
2017-09-20T03:42:07.965Z,0
2017-09-20T03:43:17.893Z,0
2017-09-20T03:44:27.854Z,0
2017-09-20T03:45:38.134Z,0
2017-09-20T03:46:48.382Z,0
2017-09-20T03:47:58.632Z,0
2017-09-20T03:49:08.894Z,0
2017-09-20T03:50:18.824Z,0
2017-09-20T03:51:28.685Z,0
2017-09-20T03:52:38.620Z,0
2017-09-20T03:53:48.863Z,0
2017-09-20T03:54:58.792Z,0
2017-09-20T03:56:09.070Z,0
2017-09-20T03:57:19.246Z,0
2017-09-20T03:58:29.493Z,0
2017-09-20T03:59:39.743Z,0
2017-09-20T04:00:49.989Z,0
2017-09-20T04:01:59.937Z,0
2017-09-20T04:03:10.219Z,0
2017-09-20T04:04:20.474Z,0
2017-09-20T04:05:30.722Z,0
2017-09-20T04:06:40.978Z,0
2017-09-20T04:07:51.242Z,0
2017-09-20T04:09:01.742Z,0
2017-09-20T04:10:11.990Z,0
2017-09-20T04:11:21.926Z,0
2017-09-20T04:12:31.866Z,0
2017-09-20T04:13:41.806Z,0
2017-09-20T04:14:52.405Z,0
2017-09-20T04:16:02.670Z,0
2017-09-20T04:17:12.924Z,0
2017-09-20T04:18:22.555Z,0
2017-09-20T04:19:32.807Z,0
2017-09-20T04:20:43.423Z,0
2017-09-20T04:21:53.364Z,0
2017-09-20T04:23:03.623Z,0
2017-09-20T04:24:13.557Z,0
2017-09-20T04:25:23.803Z,0
2017-09-20T04:26:34.294Z,0
2017-09-20T04:27:44.532Z,0
2017-09-20T04:28:54.784Z,0
2017-09-20T04:30:05.027Z,0
2017-09-20T04:31:15.275Z,0
2017-09-20T04:32:25.769Z,0
2017-09-20T04:33:35.698Z,0
2017-09-20T04:34:45.648Z,0
2017-09-20T04:35:55.890Z,0
2017-09-20T04:37:06.149Z,0
2017-09-20T04:38:16.438Z,0
2017-09-20T04:39:26.369Z,0
2017-09-20T04:40:36.621Z,0
2017-09-20T04:41:46.874Z,0
2017-09-20T04:42:56.816Z,0
2017-09-20T04:44:07.326Z,5
2017-09-20T04:45:16.947Z,5
2017-09-20T04:46:27.205Z,5
2017-09-20T04:47:37.142Z,5
2017-09-20T04:48:47.387Z,5
2017-09-20T04:49:57.681Z,10
2017-09-20T04:51:07.920Z,10
2017-09-20T04:52:18.196Z,10
2017-09-20T04:53:28.439Z,10
2017-09-20T04:54:38.691Z,15
2017-09-20T04:55:48.883Z,15
2017-09-20T04:56:59.133Z,15
2017-09-20T04:58:09.380Z,15
2017-09-20T04:59:19.631Z,15
2017-09-20T05:00:29.573Z,20
2017-09-20T05:01:40.115Z,20
2017-09-20T05:02:50.364Z,20
2017-09-20T05:04:00.294Z,20
2017-09-20T05:05:10.563Z,25
2017-09-20T05:06:20.802Z,25
2017-09-20T05:07:31.340Z,25
2017-09-20T05:08:41.588Z,25
2017-09-20T05:09:51.829Z,25
2017-09-20T05:11:02.077Z,30
2017-09-20T05:12:12.323Z,30
2017-09-20T05:13:22.827Z,35
2017-09-20T05:14:32.774Z,35
2017-09-20T05:15:42.706Z,40
2017-09-20T05:16:52.882Z,40
2017-09-20T05:18:03.134Z,45
2017-09-20T05:19:13.679Z,45
2017-09-20T05:20:23.634Z,45
2017-09-20T05:21:33.888Z,45
2017-09-20T05:22:43.851Z,50
2017-09-20T05:23:54.120Z,50
2017-09-20T05:25:04.370Z,50
2017-09-20T05:26:14.631Z,50
2017-09-20T05:27:24.894Z,50
2017-09-20T05:28:34.554Z,50
2017-09-20T05:29:44.806Z,55
2017-09-20T05:30:55.308Z,55
2017-09-20T05:32:05.545Z,55
2017-09-20T05:33:15.792Z,55
2017-09-20T05:34:26.039Z,60
2017-09-20T05:35:35.984Z,60
2017-09-20T05:36:46.263Z,60
2017-09-20T05:37:56.505Z,60
2017-09-20T05:39:06.774Z,60
2017-09-20T05:40:17.031Z,60
2017-09-20T05:41:27.281Z,60
2017-09-20T05:42:37.789Z,60
2017-09-20T05:43:48.067Z,60
2017-09-20T05:44:58.402Z,65
2017-09-20T05:46:08.722Z,65
2017-09-20T05:47:18.982Z,65
2017-09-20T05:48:28.548Z,70
2017-09-20T05:49:38.496Z,75
2017-09-20T05:50:48.799Z,80
2017-09-20T05:51:58.745Z,85
2017-09-20T05:53:08.684Z,90
2017-09-20T05:54:18.872Z,95
2017-09-20T05:55:28.806Z,100
2017-09-20T05:56:39.053Z,105
2017-09-20T05:57:49.318Z,115
2017-09-20T05:58:59.592Z,125
2017-09-20T06:00:09.462Z,135
2017-09-20T06:01:19.770Z,140
2017-09-20T06:02:30.043Z,150
2017-09-20T06:03:40.297Z,155
2017-09-20T06:04:50.543Z,160
2017-09-20T06:06:01.150Z,165
2017-09-20T06:07:11.408Z,175
2017-09-20T06:08:21.667Z,175
2017-09-20T06:09:31.931Z,180
2017-09-20T06:10:42.188Z,180
2017-09-20T06:11:52.686Z,185
2017-09-20T06:13:02.948Z,180
2017-09-20T06:14:13.260Z,180
2017-09-20T06:15:23.231Z,185
2017-09-20T06:16:33.510Z,190
2017-09-20T06:17:44.135Z,195
2017-09-20T06:18:54.387Z,205
2017-09-20T06:20:04.637Z,210
2017-09-20T06:21:14.259Z,220
2017-09-20T06:22:24.509Z,225
2017-09-20T06:23:35.071Z,230
2017-09-20T06:24:44.690Z,235
2017-09-20T06:25:54.621Z,235
2017-09-20T06:27:04.890Z,240
2017-09-20T06:28:14.819Z,235
2017-09-20T06:29:25.473Z,230
2017-09-20T06:30:35.751Z,230
2017-09-20T06:31:45.694Z,225
2017-09-20T06:32:55.638Z,220
2017-09-20T06:34:05.585Z,220
2017-09-20T06:35:15.823Z,215
2017-09-20T06:36:26.329Z,220
2017-09-20T06:37:36.613Z,225
2017-09-20T06:38:46.869Z,235
2017-09-20T06:39:57.182Z,255
2017-09-20T06:41:07.714Z,265
2017-09-20T06:42:17.975Z,260
2017-09-20T06:43:28.266Z,250
2017-09-20T06:44:38.562Z,255
2017-09-20T06:45:48.511Z,260
2017-09-20T06:46:59.123Z,260
2017-09-20T06:48:09.122Z,260
2017-09-20T06:49:19.392Z,255
2017-09-20T06:50:29.656Z,265
2017-09-20T06:51:39.936Z,270
2017-09-20T06:52:50.462Z,275
2017-09-20T06:54:00.748Z,275
2017-09-20T06:55:11.009Z,275
2017-09-20T06:56:21.259Z,285
2017-09-20T06:57:31.198Z,285
2017-09-20T06:58:41.386Z,290
2017-09-20T06:59:51.046Z,295
2017-09-20T07:01:01.325Z,300
2017-09-20T07:02:11.580Z,310
2017-09-20T07:03:21.530Z,320
2017-09-20T07:04:31.731Z,345
2017-09-20T07:05:41.398Z,390
2017-09-20T07:06:51.664Z,390
2017-09-20T07:08:01.621Z,375
2017-09-20T07:09:11.875Z,365
2017-09-20T07:10:21.872Z,335
2017-09-20T07:11:32.131Z,315
2017-09-20T07:12:42.391Z,300
2017-09-20T07:13:52.638Z,300
2017-09-20T07:15:02.898Z,320
2017-09-20T07:16:13.101Z,295
2017-09-20T07:17:23.364Z,310
2017-09-20T07:18:33.640Z,310
2017-09-20T07:19:43.908Z,335
2017-09-20T07:20:54.115Z,300
2017-09-20T07:22:04.303Z,345
2017-09-20T07:23:14.570Z,355
2017-09-20T07:24:24.243Z,355
2017-09-20T07:25:34.497Z,355
2017-09-20T07:26:44.467Z,355
2017-09-20T07:27:54.766Z,360
2017-09-20T07:29:05.025Z,365
2017-09-20T07:30:15.286Z,370
2017-09-20T07:31:24.928Z,375
2017-09-20T07:32:35.193Z,380
2017-09-20T07:33:45.756Z,385
2017-09-20T07:34:56.035Z,370
2017-09-20T07:36:06.300Z,350
2017-09-20T07:37:16.576Z,375
2017-09-20T07:38:26.842Z,380
2017-09-20T07:39:37.156Z,390
2017-09-20T07:40:47.435Z,390
2017-09-20T07:41:57.710Z,405
2017-09-20T07:43:07.335Z,390
2017-09-20T07:44:17.282Z,370
2017-09-20T07:45:27.487Z,375
2017-09-20T07:46:37.122Z,385
2017-09-20T07:47:47.394Z,400
2017-09-20T07:48:57.300Z,400
2017-09-20T07:50:07.618Z,400
2017-09-20T07:51:17.825Z,410
2017-09-20T07:52:27.776Z,415
2017-09-20T07:53:37.755Z,425
2017-09-20T07:54:48.013Z,430
2017-09-20T07:55:58.279Z,425
2017-09-20T07:57:08.580Z,425
2017-09-20T07:58:18.844Z,420
2017-09-20T07:59:28.775Z,425
2017-09-20T08:00:39.044Z,430
2017-09-20T08:01:49.312Z,445
2017-09-20T08:02:59.976Z,465
2017-09-20T08:04:10.262Z,500
2017-09-20T08:05:20.537Z,645
2017-09-20T08:06:30.525Z,825
2017-09-20T08:07:40.511Z,545
2017-09-20T08:08:51.083Z,500
2017-09-20T08:10:01.338Z,885
2017-09-20T08:11:11.286Z,875
2017-09-20T08:12:21.541Z,1025
2017-09-20T08:13:31.199Z,930
2017-09-20T08:14:41.752Z,720
2017-09-20T08:15:52.029Z,975
2017-09-20T08:17:02.324Z,435
2017-09-20T08:18:12.492Z,340
2017-09-20T08:19:22.082Z,345
2017-09-20T08:20:32.270Z,400
2017-09-20T08:21:42.236Z,915
2017-09-20T08:22:52.509Z,920
2017-09-20T08:24:02.829Z,940
2017-09-20T08:25:12.788Z,945
2017-09-20T08:26:23.391Z,1015
2017-09-20T08:27:33.374Z,955
2017-09-20T08:28:43.334Z,1010
2017-09-20T08:29:53.592Z,1045
2017-09-20T08:31:03.858Z,1050
2017-09-20T08:32:14.414Z,1065
2017-09-20T08:33:24.680Z,1075
2017-09-20T08:34:34.952Z,1085
2017-09-20T08:35:44.905Z,1095
2017-09-20T08:36:54.842Z,1105
2017-09-20T08:38:05.145Z,1140
2017-09-20T08:39:15.132Z,1100
2017-09-20T08:40:25.396Z,1180
2017-09-20T08:41:35.663Z,1180
2017-09-20T08:42:45.964Z,1190
2017-09-20T08:43:56.195Z,1220
2017-09-20T08:45:06.472Z,1255
2017-09-20T08:46:16.091Z,1235
2017-09-20T08:47:26.355Z,1235
2017-09-20T08:48:36.309Z,1275
2017-09-20T08:49:46.930Z,1285
2017-09-20T08:50:57.203Z,1270
2017-09-20T08:52:07.480Z,1335
2017-09-20T08:53:17.465Z,1370
2017-09-20T08:54:27.437Z,1425
2017-09-20T08:55:38.012Z,1445
2017-09-20T08:56:47.973Z,1460
2017-09-20T08:57:58.253Z,510
2017-09-20T08:59:08.195Z,520
2017-09-20T09:00:18.462Z,1575
2017-09-20T09:01:29.096Z,1540
2017-09-20T09:02:39.078Z,560
2017-09-20T09:03:49.050Z,575
2017-09-20T09:04:59.002Z,1635
2017-09-20T09:06:09.269Z,665
2017-09-20T09:07:19.612Z,1675
2017-09-20T09:08:29.872Z,1555
2017-09-20T09:09:40.158Z,1545
2017-09-20T09:10:50.148Z,595
2017-09-20T09:12:00.089Z,1610
2017-09-20T09:13:10.649Z,625
2017-09-20T09:14:20.917Z,565
2017-09-20T09:15:30.565Z,1685
2017-09-20T09:16:40.846Z,1690
2017-09-20T09:17:51.148Z,1765
2017-09-20T09:19:01.678Z,620
2017-09-20T09:20:11.680Z,595
2017-09-20T09:21:21.957Z,550
2017-09-20T09:22:32.215Z,1800
2017-09-20T09:23:42.170Z,1835
2017-09-20T09:24:52.784Z,1645
2017-09-20T09:26:03.073Z,1245
2017-09-20T09:27:13.339Z,1000
2017-09-20T09:28:23.616Z,570
2017-09-20T09:29:33.888Z,1965
2017-09-20T09:30:44.418Z,2015
2017-09-20T09:31:54.756Z,2065
2017-09-20T09:33:05.028Z,2050
2017-09-20T09:34:14.964Z,2015
2017-09-20T09:35:25.218Z,1995
2017-09-20T09:36:35.516Z,2070
2017-09-20T09:37:45.163Z,2125
2017-09-20T09:38:55.426Z,2195
2017-09-20T09:40:05.054Z,2180
2017-09-20T09:41:14.691Z,1555
2017-09-20T09:42:24.971Z,2230
2017-09-20T09:43:34.938Z,2260
2017-09-20T09:44:45.200Z,2015
2017-09-20T09:45:55.142Z,1395
2017-09-20T09:47:05.409Z,1585
2017-09-20T09:48:15.968Z,465
2017-09-20T09:49:26.231Z,440
2017-09-20T09:50:36.190Z,465
2017-09-20T09:51:46.158Z,490
2017-09-20T09:52:56.476Z,515
2017-09-20T09:54:07.002Z,530
2017-09-20T09:55:16.940Z,540
2017-09-20T09:56:27.194Z,755
2017-09-20T09:57:37.141Z,510
2017-09-20T09:58:47.099Z,545
2017-09-20T09:59:57.408Z,540
2017-09-20T10:01:07.363Z,545
2017-09-20T10:02:16.994Z,2000
2017-09-20T10:03:27.252Z,2215
2017-09-20T10:04:37.504Z,2235
2017-09-20T10:05:47.773Z,2185
2017-09-20T10:06:58.049Z,2450
2017-09-20T10:08:08.329Z,2975
2017-09-20T10:09:18.593Z,2470
2017-09-20T10:10:28.875Z,2225
2017-09-20T10:11:39.437Z,2420
2017-09-20T10:12:49.418Z,2385
2017-09-20T10:13:59.698Z,2010
2017-09-20T10:15:09.966Z,1760
2017-09-20T10:16:19.948Z,2400
2017-09-20T10:17:30.583Z,2415
2017-09-20T10:18:40.873Z,2455
2017-09-20T10:19:51.189Z,2400
2017-09-20T10:21:01.494Z,2430
2017-09-20T10:22:11.772Z,755
2017-09-20T10:23:21.989Z,2585
2017-09-20T10:24:31.953Z,2470
2017-09-20T10:25:41.924Z,2445
2017-09-20T10:26:51.880Z,2430
2017-09-20T10:28:02.141Z,2485
2017-09-20T10:29:12.675Z,2390
2017-09-20T10:30:22.658Z,2355
2017-09-20T10:31:32.926Z,2440
2017-09-20T10:32:42.870Z,2480
2017-09-20T10:33:53.156Z,2520
2017-09-20T10:35:03.479Z,2560
2017-09-20T10:36:13.760Z,2605
2017-09-20T10:37:23.728Z,2695
2017-09-20T10:38:33.685Z,2745
2017-09-20T10:39:43.983Z,2820
2017-09-20T10:40:54.204Z,2850
2017-09-20T10:42:04.485Z,2890
2017-09-20T10:43:14.774Z,1275
2017-09-20T10:44:24.805Z,2770
2017-09-20T10:45:35.074Z,2800
2017-09-20T10:46:45.367Z,1045
2017-09-20T10:47:55.375Z,850
2017-09-20T10:49:05.663Z,1900
2017-09-20T10:50:15.957Z,590
2017-09-20T10:51:25.277Z,480
2017-09-20T10:52:35.801Z,420
2017-09-20T10:53:46.070Z,365
2017-09-20T10:54:56.045Z,310
2017-09-20T10:56:06.014Z,280
2017-09-20T10:57:16.289Z,270
2017-09-20T10:58:26.857Z,270
2017-09-20T10:59:37.174Z,285
2017-09-20T11:00:46.806Z,315
2017-09-20T11:01:57.061Z,365
2017-09-20T11:03:07.336Z,405
2017-09-20T11:04:17.530Z,440
2017-09-20T11:05:27.811Z,475
2017-09-20T11:06:38.080Z,495
2017-09-20T11:07:48.347Z,510
2017-09-20T11:08:58.625Z,525
2017-09-20T11:10:09.162Z,550
2017-09-20T11:11:19.454Z,570
2017-09-20T11:12:29.795Z,565
2017-09-20T11:13:40.078Z,595
2017-09-20T11:14:50.028Z,645
2017-09-20T11:16:00.242Z,690
2017-09-20T11:17:10.192Z,735
2017-09-20T11:18:20.148Z,770
2017-09-20T11:19:30.425Z,780
2017-09-20T11:20:40.690Z,785
2017-09-20T11:21:50.992Z,805
2017-09-20T11:23:01.306Z,815
2017-09-20T11:24:11.253Z,825
2017-09-20T11:25:21.198Z,815
2017-09-20T11:26:31.467Z,850
2017-09-20T11:27:41.997Z,845
2017-09-20T11:28:51.642Z,870
2017-09-20T11:30:01.580Z,900
2017-09-20T11:31:11.547Z,920
2017-09-20T11:32:21.182Z,965
2017-09-20T11:33:31.803Z,965
2017-09-20T11:34:42.342Z,1085
2017-09-20T11:35:52.643Z,1985
2017-09-20T11:37:02.616Z,2745
2017-09-20T11:38:12.587Z,2375
2017-09-20T11:39:23.226Z,2490
2017-09-20T11:40:33.173Z,1770
2017-09-20T11:41:43.139Z,3085
2017-09-20T11:42:53.653Z,3180
2017-09-20T11:44:03.600Z,3155
2017-09-20T11:45:14.108Z,3075
2017-09-20T11:46:24.377Z,3060
2017-09-20T11:47:34.659Z,3120
2017-09-20T11:48:44.931Z,3175
2017-09-20T11:49:54.868Z,3245
2017-09-20T11:51:05.472Z,3230
2017-09-20T11:52:15.758Z,3135
2017-09-20T11:53:26.019Z,3095
2017-09-20T11:54:35.977Z,2955
2017-09-20T11:55:45.933Z,3315
2017-09-20T11:56:56.154Z,2280
2017-09-20T11:58:06.106Z,1915
2017-09-20T11:59:16.082Z,1380
2017-09-20T12:00:26.068Z,2920
2017-09-20T12:01:36.365Z,3745
2017-09-20T12:02:46.581Z,3685
2017-09-20T12:03:56.874Z,3690
2017-09-20T12:05:06.831Z,3570
2017-09-20T12:06:17.115Z,1615
2017-09-20T12:07:27.393Z,2140
2017-09-20T12:08:37.913Z,2565
2017-09-20T12:09:48.196Z,1685
2017-09-20T12:10:58.490Z,1305
2017-09-20T12:12:08.770Z,1305
2017-09-20T12:13:19.052Z,1790
2017-09-20T12:14:29.586Z,1515
2017-09-20T12:15:39.874Z,1455
2017-09-20T12:16:50.159Z,1475
2017-09-20T12:18:00.122Z,2220
2017-09-20T12:19:10.394Z,1340
2017-09-20T12:20:20.919Z,1240
2017-09-20T12:21:30.575Z,1380
2017-09-20T12:22:40.862Z,1295
2017-09-20T12:23:51.146Z,1620
2017-09-20T12:25:01.109Z,1775
2017-09-20T12:26:11.631Z,1205
2017-09-20T12:27:21.891Z,1105
2017-09-20T12:28:32.176Z,1110
2017-09-20T12:29:42.489Z,1060
2017-09-20T12:30:52.757Z,1070
2017-09-20T12:32:02.654Z,1015
2017-09-20T12:33:12.667Z,980
2017-09-20T12:34:22.940Z,965
2017-09-20T12:35:33.199Z,955
2017-09-20T12:36:43.144Z,940
2017-09-20T12:37:53.374Z,910
2017-09-20T12:39:03.308Z,905
2017-09-20T12:40:13.259Z,900
2017-09-20T12:41:23.507Z,905
2017-09-20T12:42:33.823Z,895
2017-09-20T12:43:44.005Z,895
2017-09-20T12:44:54.278Z,905
2017-09-20T12:46:04.530Z,930
2017-09-20T12:47:14.477Z,1025
2017-09-20T12:48:24.733Z,1145
2017-09-20T12:49:34.943Z,1050
2017-09-20T12:50:45.206Z,1050
2017-09-20T12:51:55.470Z,1050
2017-09-20T12:53:05.731Z,1070
2017-09-20T12:54:15.984Z,1070
2017-09-20T12:55:26.503Z,1105
2017-09-20T12:56:36.768Z,1175
2017-09-20T12:57:46.719Z,1300
2017-09-20T12:58:56.987Z,1135
2017-09-20T13:00:07.248Z,1060
2017-09-20T13:01:17.483Z,1020
2017-09-20T13:02:27.743Z,980
2017-09-20T13:03:37.646Z,935
2017-09-20T13:04:47.576Z,895
2017-09-20T13:05:57.828Z,855
2017-09-20T13:07:08.306Z,810
2017-09-20T13:08:18.216Z,775
2017-09-20T13:09:28.442Z,735
2017-09-20T13:10:38.393Z,695
2017-09-20T13:11:48.664Z,655
2017-09-20T13:12:59.236Z,600
2017-09-20T13:14:09.511Z,555
2017-09-20T13:15:18.825Z,515
2017-09-20T13:16:28.773Z,485
2017-09-20T13:17:38.720Z,465
2017-09-20T13:18:49.231Z,450
2017-09-20T13:19:59.492Z,440
2017-09-20T13:21:09.772Z,435
2017-09-20T13:22:19.736Z,435
2017-09-20T13:23:30.005Z,445
2017-09-20T13:24:40.517Z,465
2017-09-20T13:25:50.475Z,475
2017-09-20T13:27:00.427Z,495
2017-09-20T13:28:10.084Z,510
2017-09-20T13:29:20.362Z,535
2017-09-20T13:30:30.544Z,560
2017-09-20T13:31:40.503Z,590
2017-09-20T13:32:50.453Z,625
2017-09-20T13:34:00.714Z,660
2017-09-20T13:35:10.689Z,705
2017-09-20T13:36:21.258Z,730
2017-09-20T13:37:30.568Z,770
2017-09-20T13:38:40.851Z,825
2017-09-20T13:39:51.115Z,860
2017-09-20T13:41:01.377Z,885
2017-09-20T13:42:11.582Z,940
2017-09-20T13:43:21.845Z,1110
2017-09-20T13:44:31.782Z,2620
2017-09-20T13:45:42.052Z,2835
2017-09-20T13:46:52.007Z,3055
2017-09-20T13:48:02.576Z,1725
2017-09-20T13:49:12.850Z,3095
2017-09-20T13:50:23.127Z,3010
2017-09-20T13:51:33.088Z,2925
2017-09-20T13:52:43.040Z,2675
2017-09-20T13:53:53.550Z,1390
2017-09-20T13:55:03.509Z,1355
2017-09-20T13:56:13.466Z,1550
2017-09-20T13:57:23.737Z,1865
2017-09-20T13:58:34.021Z,2510
2017-09-20T13:59:44.547Z,2575
2017-09-20T14:00:54.811Z,2365
2017-09-20T14:02:04.757Z,550
2017-09-20T14:03:14.708Z,420
2017-09-20T14:04:24.675Z,365
2017-09-20T14:05:35.181Z,305
2017-09-20T14:06:45.460Z,265
2017-09-20T14:07:55.097Z,250
2017-09-20T14:09:05.071Z,250
2017-09-20T14:10:15.359Z,260
2017-09-20T14:11:25.877Z,270
2017-09-20T14:12:36.174Z,285
2017-09-20T14:13:45.800Z,290
2017-09-20T14:14:56.058Z,290
2017-09-20T14:16:06.324Z,285
2017-09-20T14:17:16.252Z,285
2017-09-20T14:18:26.524Z,280
2017-09-20T14:19:36.797Z,280
2017-09-20T14:20:46.742Z,280
2017-09-20T14:21:57.009Z,285
2017-09-20T14:23:07.260Z,290
2017-09-20T14:24:17.206Z,295
2017-09-20T14:25:27.462Z,305
2017-09-20T14:26:37.713Z,325
2017-09-20T14:27:47.980Z,335
2017-09-20T14:28:58.178Z,345
2017-09-20T14:30:08.440Z,355
2017-09-20T14:31:18.721Z,365
2017-09-20T14:32:29.009Z,365
2017-09-20T14:33:38.969Z,375
2017-09-20T14:34:49.478Z,385
2017-09-20T14:35:59.737Z,400
2017-09-20T14:37:10.007Z,410
2017-09-20T14:38:20.274Z,430
2017-09-20T14:39:30.738Z,440
2017-09-20T14:40:40.960Z,450
2017-09-20T14:41:50.913Z,450
2017-09-20T14:43:01.179Z,450
2017-09-20T14:44:11.440Z,445
2017-09-20T14:45:21.721Z,440
2017-09-20T14:46:32.233Z,435
2017-09-20T14:47:42.518Z,440
2017-09-20T14:48:52.468Z,445
2017-09-20T14:50:02.424Z,460
2017-09-20T14:51:12.366Z,470
2017-09-20T14:52:22.878Z,480
2017-09-20T14:53:32.829Z,485
2017-09-20T14:54:43.084Z,490
2017-09-20T14:55:53.411Z,495
2017-09-20T14:57:03.690Z,505
2017-09-20T14:58:14.237Z,515
2017-09-20T14:59:24.499Z,525
2017-09-20T15:00:34.449Z,540
2017-09-20T15:01:44.701Z,555
2017-09-20T15:02:54.335Z,565
2017-09-20T15:04:04.529Z,570
2017-09-20T15:05:14.485Z,635
2017-09-20T15:06:24.748Z,685
2017-09-20T15:07:34.383Z,675
2017-09-20T15:08:44.643Z,660
2017-09-20T15:09:55.213Z,640
2017-09-20T15:11:05.156Z,620
2017-09-20T15:12:15.109Z,665
2017-09-20T15:13:25.058Z,1150
2017-09-20T15:14:35.007Z,1670
2017-09-20T15:15:45.206Z,1880
2017-09-20T15:16:55.475Z,1895
2017-09-20T15:18:05.733Z,1940
2017-09-20T15:19:15.683Z,1750
2017-09-20T15:20:25.948Z,1570
2017-09-20T15:21:36.142Z,885
2017-09-20T15:22:46.106Z,820
2017-09-20T15:23:56.366Z,980
2017-09-20T15:25:06.626Z,1035
2017-09-20T15:26:16.891Z,1390
2017-09-20T15:27:27.411Z,1360
2017-09-20T15:28:37.663Z,1155
2017-09-20T15:29:47.387Z,1300
2017-09-20T15:30:57.344Z,1570
2017-09-20T15:32:07.598Z,1565
2017-09-20T15:33:18.116Z,1540
2017-09-20T15:34:28.073Z,1480
2017-09-20T15:35:38.342Z,1275
2017-09-20T15:36:48.597Z,1370
2017-09-20T15:37:58.875Z,1425
2017-09-20T15:39:09.395Z,1400
2017-09-20T15:40:19.350Z,1350
2017-09-20T15:41:29.608Z,1305
2017-09-20T15:42:39.557Z,1305
2017-09-20T15:43:49.813Z,1340
2017-09-20T15:45:00.373Z,1360
2017-09-20T15:46:10.324Z,1245
2017-09-20T15:47:20.584Z,1225
2017-09-20T15:48:30.862Z,975
2017-09-20T15:49:41.152Z,1155
2017-09-20T15:50:51.679Z,1170
2017-09-20T15:52:01.943Z,1170
2017-09-20T15:53:12.204Z,1025
2017-09-20T15:54:22.463Z,695
2017-09-20T15:55:32.407Z,330
2017-09-20T15:56:42.924Z,315
2017-09-20T15:57:53.187Z,295
2017-09-20T15:59:03.450Z,280
2017-09-20T16:00:13.713Z,265
2017-09-20T16:01:23.974Z,250
2017-09-20T16:02:34.560Z,235
2017-09-20T16:03:44.504Z,220
2017-09-20T16:04:54.761Z,205
2017-09-20T16:06:04.079Z,195
2017-09-20T16:07:14.049Z,190
2017-09-20T16:08:24.353Z,185
2017-09-20T16:09:34.616Z,180
2017-09-20T16:10:44.891Z,180
2017-09-20T16:11:55.153Z,180
2017-09-20T16:13:05.115Z,210
2017-09-20T16:14:15.638Z,230
2017-09-20T16:15:25.581Z,180
2017-09-20T16:16:35.554Z,215
2017-09-20T16:17:45.820Z,510
2017-09-20T16:18:55.765Z,505
2017-09-20T16:20:06.020Z,350